sensor_id;sensor_type;location;lat;lon;timestamp;P1;durP1;ratioP1;P2;durP2;ratioP2
2892;SDS011;1456;51.840;12.184;2023-08-06T00:04:55;6.37;;;6.27;;
2892;SDS011;1456;51.840;12.184;2023-08-06T00:07:22;6.70;;;6.43;;
2892;SDS011;1456;51.840;12.184;2023-08-06T00:09:52;6.93;;;6.63;;
2892;SDS011;1456;51.840;12.184;2023-08-06T00:12:18;6.30;;;6.20;;
2892;SDS011;1456;51.840;12.184;2023-08-06T00:14:44;5.43;;;5.43;;
2892;SDS011;1456;51.840;12.184;2023-08-06T00:17:10;6.47;;;6.37;;
2892;SDS011;1456;51.840;12.184;2023-08-06T00:19:35;5.77;;;5.70;;
2892;SDS011;1456;51.840;12.184;2023-08-06T00:22:01;6.57;;;6.47;;
2892;SDS011;1456;51.840;12.184;2023-08-06T00:24:27;5.70;;;5.60;;
2892;SDS011;1456;51.840;12.184;2023-08-06T00:26:53;5.40;;;5.40;;
2892;SDS011;1456;51.840;12.184;2023-08-06T00:29:20;6.03;;;5.93;;
2892;SDS011;1456;51.840;12.184;2023-08-06T00:31:46;6.10;;;6.00;;
2892;SDS011;1456;51.840;12.184;2023-08-06T00:34:12;6.10;;;6.00;;
2892;SDS011;1456;51.840;12.184;2023-08-06T00:39:06;6.37;;;6.27;;
2892;SDS011;1456;51.840;12.184;2023-08-06T00:41:33;6.13;;;6.03;;
2892;SDS011;1456;51.840;12.184;2023-08-06T00:43:58;5.83;;;5.73;;
2892;SDS011;1456;51.840;12.184;2023-08-06T00:46:24;6.20;;;6.10;;
2892;SDS011;1456;51.840;12.184;2023-08-06T00:48:50;5.67;;;5.60;;
2892;SDS011;1456;51.840;12.184;2023-08-06T00:51:18;5.60;;;5.60;;
2892;SDS011;1456;51.840;12.184;2023-08-06T00:53:45;6.33;;;6.03;;
2892;SDS011;1456;51.840;12.184;2023-08-06T00:56:13;5.53;;;5.53;;
2892;SDS011;1456;51.840;12.184;2023-08-06T00:58:39;5.70;;;5.60;;
2892;SDS011;1456;51.840;12.184;2023-08-06T01:03:34;5.83;;;5.73;;
2892;SDS011;1456;51.840;12.184;2023-08-06T01:06:06;5.00;;;4.90;;
2892;SDS011;1456;51.840;12.184;2023-08-06T01:14:23;4.43;;;4.33;;
2892;SDS011;1456;51.840;12.184;2023-08-06T01:16:58;3.90;;;3.90;;
2892;SDS011;1456;51.840;12.184;2023-08-06T01:19:24;4.90;;;4.80;;
2892;SDS011;1456;51.840;12.184;2023-08-06T01:22:00;4.83;;;4.73;;
2892;SDS011;1456;51.840;12.184;2023-08-06T01:24:26;4.33;;;4.33;;
2892;SDS011;1456;51.840;12.184;2023-08-06T01:26:57;5.20;;;5.00;;
2892;SDS011;1456;51.840;12.184;2023-08-06T01:29:45;4.77;;;4.67;;
2892;SDS011;1456;51.840;12.184;2023-08-06T01:32:18;4.73;;;4.10;;
2892;SDS011;1456;51.840;12.184;2023-08-06T01:34:47;3.97;;;3.97;;
2892;SDS011;1456;51.840;12.184;2023-08-06T01:37:13;4.20;;;4.10;;
2892;SDS011;1456;51.840;12.184;2023-08-06T01:39:39;4.70;;;4.50;;
2892;SDS011;1456;51.840;12.184;2023-08-06T01:44:41;3.80;;;3.70;;
2892;SDS011;1456;51.840;12.184;2023-08-06T01:47:07;4.30;;;4.20;;
2892;SDS011;1456;51.840;12.184;2023-08-06T01:49:33;4.53;;;4.23;;
2892;SDS011;1456;51.840;12.184;2023-08-06T01:51:59;4.07;;;3.97;;
2892;SDS011;1456;51.840;12.184;2023-08-06T01:54:27;4.23;;;3.90;;
2892;SDS011;1456;51.840;12.184;2023-08-06T01:56:55;3.80;;;3.67;;
2892;SDS011;1456;51.840;12.184;2023-08-06T01:59:23;3.53;;;3.53;;
2892;SDS011;1456;51.840;12.184;2023-08-06T02:01:50;10.90;;;4.53;;
2892;SDS011;1456;51.840;12.184;2023-08-06T02:04:16;3.63;;;3.30;;
2892;SDS011;1456;51.840;12.184;2023-08-06T02:09:11;3.60;;;3.60;;
2892;SDS011;1456;51.840;12.184;2023-08-06T02:11:38;3.47;;;3.37;;
2892;SDS011;1456;51.840;12.184;2023-08-06T02:14:05;3.97;;;3.87;;
2892;SDS011;1456;51.840;12.184;2023-08-06T02:16:32;3.40;;;3.40;;
2892;SDS011;1456;51.840;12.184;2023-08-06T02:18:57;3.47;;;3.47;;
2892;SDS011;1456;51.840;12.184;2023-08-06T02:21:26;4.00;;;4.00;;
2892;SDS011;1456;51.840;12.184;2023-08-06T02:23:53;4.70;;;4.60;;
2892;SDS011;1456;51.840;12.184;2023-08-06T02:26:21;3.90;;;3.80;;
2892;SDS011;1456;51.840;12.184;2023-08-06T02:31:19;4.03;;;3.93;;
2892;SDS011;1456;51.840;12.184;2023-08-06T02:33:44;4.40;;;4.30;;
2892;SDS011;1456;51.840;12.184;2023-08-06T02:36:10;3.63;;;3.53;;
2892;SDS011;1456;51.840;12.184;2023-08-06T02:38:40;4.47;;;4.47;;
2892;SDS011;1456;51.840;12.184;2023-08-06T02:41:14;3.40;;;3.40;;
2892;SDS011;1456;51.840;12.184;2023-08-06T02:46:13;4.13;;;4.03;;
2892;SDS011;1456;51.840;12.184;2023-08-06T02:48:41;3.03;;;3.03;;
2892;SDS011;1456;51.840;12.184;2023-08-06T02:51:09;4.37;;;4.27;;
2892;SDS011;1456;51.840;12.184;2023-08-06T02:56:21;3.50;;;3.40;;
2892;SDS011;1456;51.840;12.184;2023-08-06T03:01:17;3.07;;;2.70;;
2892;SDS011;1456;51.840;12.184;2023-08-06T03:03:42;2.63;;;2.47;;
2892;SDS011;1456;51.840;12.184;2023-08-06T03:06:09;2.33;;;2.33;;
2892;SDS011;1456;51.840;12.184;2023-08-06T03:08:35;5.57;;;3.30;;
2892;SDS011;1456;51.840;12.184;2023-08-06T03:11:01;2.73;;;2.63;;
2892;SDS011;1456;51.840;12.184;2023-08-06T03:13:27;3.43;;;3.33;;
2892;SDS011;1456;51.840;12.184;2023-08-06T03:15:54;2.73;;;2.63;;
2892;SDS011;1456;51.840;12.184;2023-08-06T03:18:21;2.13;;;2.03;;
2892;SDS011;1456;51.840;12.184;2023-08-06T03:20:49;2.10;;;2.10;;
2892;SDS011;1456;51.840;12.184;2023-08-06T03:23:15;2.57;;;2.57;;
2892;SDS011;1456;51.840;12.184;2023-08-06T03:25:41;2.30;;;2.30;;
2892;SDS011;1456;51.840;12.184;2023-08-06T03:28:06;1.87;;;1.87;;
2892;SDS011;1456;51.840;12.184;2023-08-06T03:30:32;2.93;;;2.10;;
2892;SDS011;1456;51.840;12.184;2023-08-06T03:32:57;2.67;;;2.50;;
2892;SDS011;1456;51.840;12.184;2023-08-06T03:35:25;2.50;;;2.40;;
2892;SDS011;1456;51.840;12.184;2023-08-06T03:40:22;9.03;;;3.83;;
2892;SDS011;1456;51.840;12.184;2023-08-06T03:42:49;1.97;;;1.97;;
2892;SDS011;1456;51.840;12.184;2023-08-06T03:45:15;5.03;;;2.70;;
2892;SDS011;1456;51.840;12.184;2023-08-06T03:47:45;4.50;;;3.50;;
2892;SDS011;1456;51.840;12.184;2023-08-06T03:50:11;2.30;;;2.20;;
2892;SDS011;1456;51.840;12.184;2023-08-06T03:52:37;2.63;;;2.53;;
2892;SDS011;1456;51.840;12.184;2023-08-06T03:55:03;2.17;;;2.17;;
2892;SDS011;1456;51.840;12.184;2023-08-06T03:57:33;2.10;;;2.10;;
2892;SDS011;1456;51.840;12.184;2023-08-06T04:00:00;4.00;;;3.70;;
2892;SDS011;1456;51.840;12.184;2023-08-06T04:05:03;2.57;;;2.33;;
2892;SDS011;1456;51.840;12.184;2023-08-06T04:07:29;2.97;;;2.87;;
2892;SDS011;1456;51.840;12.184;2023-08-06T04:09:59;2.60;;;2.60;;
2892;SDS011;1456;51.840;12.184;2023-08-06T04:12:26;3.03;;;2.93;;
2892;SDS011;1456;51.840;12.184;2023-08-06T04:14:52;2.37;;;2.17;;
2892;SDS011;1456;51.840;12.184;2023-08-06T04:17:20;2.60;;;2.60;;
2892;SDS011;1456;51.840;12.184;2023-08-06T04:19:50;2.30;;;2.30;;
2892;SDS011;1456;51.840;12.184;2023-08-06T04:22:22;2.40;;;2.30;;
2892;SDS011;1456;51.840;12.184;2023-08-06T04:24:49;2.93;;;2.93;;
2892;SDS011;1456;51.840;12.184;2023-08-06T04:27:14;2.10;;;2.10;;
2892;SDS011;1456;51.840;12.184;2023-08-06T04:29:41;3.90;;;3.70;;
2892;SDS011;1456;51.840;12.184;2023-08-06T04:32:09;3.27;;;3.07;;
2892;SDS011;1456;51.840;12.184;2023-08-06T04:34:37;2.73;;;2.60;;
2892;SDS011;1456;51.840;12.184;2023-08-06T04:37:03;2.80;;;2.60;;
2892;SDS011;1456;51.840;12.184;2023-08-06T04:39:29;2.30;;;2.30;;
2892;SDS011;1456;51.840;12.184;2023-08-06T04:41:59;4.40;;;3.60;;
2892;SDS011;1456;51.840;12.184;2023-08-06T04:44:26;2.70;;;2.60;;
2892;SDS011;1456;51.840;12.184;2023-08-06T04:46:51;2.07;;;2.07;;
2892;SDS011;1456;51.840;12.184;2023-08-06T04:49:20;3.40;;;3.40;;
2892;SDS011;1456;51.840;12.184;2023-08-06T04:51:46;5.50;;;4.20;;
2892;SDS011;1456;51.840;12.184;2023-08-06T04:54:16;1.90;;;1.90;;
2892;SDS011;1456;51.840;12.184;2023-08-06T04:56:48;2.10;;;2.00;;
2892;SDS011;1456;51.840;12.184;2023-08-06T04:59:16;2.03;;;1.93;;
2892;SDS011;1456;51.840;12.184;2023-08-06T05:04:16;3.53;;;2.53;;
2892;SDS011;1456;51.840;12.184;2023-08-06T05:06:46;2.93;;;2.73;;
2892;SDS011;1456;51.840;12.184;2023-08-06T05:09:11;2.73;;;2.63;;
2892;SDS011;1456;51.840;12.184;2023-08-06T05:11:38;2.30;;;2.20;;
2892;SDS011;1456;51.840;12.184;2023-08-06T05:14:04;2.20;;;2.10;;
2892;SDS011;1456;51.840;12.184;2023-08-06T05:16:37;3.73;;;1.90;;
2892;SDS011;1456;51.840;12.184;2023-08-06T05:21:41;2.13;;;1.93;;
2892;SDS011;1456;51.840;12.184;2023-08-06T05:24:10;2.00;;;1.90;;
2892;SDS011;1456;51.840;12.184;2023-08-06T05:26:37;2.37;;;2.27;;
2892;SDS011;1456;51.840;12.184;2023-08-06T05:29:03;2.57;;;2.47;;
2892;SDS011;1456;51.840;12.184;2023-08-06T05:31:29;1.83;;;1.83;;
2892;SDS011;1456;51.840;12.184;2023-08-06T05:33:56;1.40;;;1.40;;
2892;SDS011;1456;51.840;12.184;2023-08-06T05:36:26;1.83;;;1.73;;
2892;SDS011;1456;51.840;12.184;2023-08-06T05:38:54;1.87;;;1.77;;
2892;SDS011;1456;51.840;12.184;2023-08-06T05:41:27;2.00;;;1.90;;
2892;SDS011;1456;51.840;12.184;2023-08-06T05:46:22;1.07;;;1.07;;
2892;SDS011;1456;51.840;12.184;2023-08-06T05:51:19;2.33;;;2.33;;
2892;SDS011;1456;51.840;12.184;2023-08-06T05:53:46;2.80;;;2.70;;
2892;SDS011;1456;51.840;12.184;2023-08-06T05:56:16;1.87;;;1.87;;
2892;SDS011;1456;51.840;12.184;2023-08-06T05:58:43;3.57;;;2.30;;
2892;SDS011;1456;51.840;12.184;2023-08-06T06:01:12;2.40;;;2.30;;
2892;SDS011;1456;51.840;12.184;2023-08-06T06:03:39;4.30;;;4.10;;
2892;SDS011;1456;51.840;12.184;2023-08-06T06:06:06;2.20;;;2.10;;
2892;SDS011;1456;51.840;12.184;2023-08-06T06:08:31;3.60;;;3.50;;
2892;SDS011;1456;51.840;12.184;2023-08-06T06:11:04;3.90;;;3.00;;
2892;SDS011;1456;51.840;12.184;2023-08-06T06:13:29;3.37;;;3.17;;
2892;SDS011;1456;51.840;12.184;2023-08-06T06:15:57;2.67;;;2.53;;
2892;SDS011;1456;51.840;12.184;2023-08-06T06:18:25;2.83;;;2.73;;
2892;SDS011;1456;51.840;12.184;2023-08-06T06:21:01;2.13;;;2.13;;
2892;SDS011;1456;51.840;12.184;2023-08-06T06:23:27;4.10;;;2.00;;
2892;SDS011;1456;51.840;12.184;2023-08-06T06:25:59;1.60;;;1.60;;
2892;SDS011;1456;51.840;12.184;2023-08-06T06:28:24;2.47;;;2.37;;
2892;SDS011;1456;51.840;12.184;2023-08-06T06:30:51;2.40;;;2.20;;
2892;SDS011;1456;51.840;12.184;2023-08-06T06:33:16;1.77;;;1.77;;
2892;SDS011;1456;51.840;12.184;2023-08-06T06:35:43;1.37;;;1.37;;
2892;SDS011;1456;51.840;12.184;2023-08-06T06:38:15;2.40;;;1.47;;
2892;SDS011;1456;51.840;12.184;2023-08-06T06:40:41;1.00;;;1.00;;
2892;SDS011;1456;51.840;12.184;2023-08-06T06:43:12;1.80;;;1.80;;
2892;SDS011;1456;51.840;12.184;2023-08-06T06:45:37;1.50;;;1.50;;
2892;SDS011;1456;51.840;12.184;2023-08-06T06:48:03;1.10;;;1.10;;
2892;SDS011;1456;51.840;12.184;2023-08-06T06:50:30;1.03;;;1.03;;
2892;SDS011;1456;51.840;12.184;2023-08-06T06:52:56;1.33;;;1.10;;
2892;SDS011;1456;51.840;12.184;2023-08-06T06:55:22;1.27;;;1.27;;
2892;SDS011;1456;51.840;12.184;2023-08-06T06:57:50;1.20;;;1.20;;
2892;SDS011;1456;51.840;12.184;2023-08-06T07:00:16;1.40;;;1.40;;
2892;SDS011;1456;51.840;12.184;2023-08-06T07:02:44;2.23;;;2.13;;
2892;SDS011;1456;51.840;12.184;2023-08-06T07:05:10;1.93;;;1.80;;
2892;SDS011;1456;51.840;12.184;2023-08-06T07:07:38;4.00;;;2.00;;
2892;SDS011;1456;51.840;12.184;2023-08-06T07:10:04;2.20;;;2.20;;
2892;SDS011;1456;51.840;12.184;2023-08-06T07:12:32;3.10;;;2.90;;
2892;SDS011;1456;51.840;12.184;2023-08-06T07:14:58;2.13;;;2.13;;
2892;SDS011;1456;51.840;12.184;2023-08-06T07:17:24;2.67;;;2.57;;
2892;SDS011;1456;51.840;12.184;2023-08-06T07:19:52;2.47;;;2.47;;
2892;SDS011;1456;51.840;12.184;2023-08-06T07:22:18;2.83;;;2.83;;
2892;SDS011;1456;51.840;12.184;2023-08-06T07:24:46;3.60;;;3.60;;
2892;SDS011;1456;51.840;12.184;2023-08-06T07:27:12;3.90;;;3.90;;
2892;SDS011;1456;51.840;12.184;2023-08-06T07:29:40;4.40;;;4.40;;
2892;SDS011;1456;51.840;12.184;2023-08-06T07:32:06;4.40;;;4.30;;
2892;SDS011;1456;51.840;12.184;2023-08-06T07:34:33;4.17;;;4.13;;
2892;SDS011;1456;51.840;12.184;2023-08-06T07:37:00;4.53;;;4.43;;
2892;SDS011;1456;51.840;12.184;2023-08-06T07:39:26;4.50;;;4.50;;
2892;SDS011;1456;51.840;12.184;2023-08-06T07:41:53;4.40;;;4.40;;
2892;SDS011;1456;51.840;12.184;2023-08-06T07:44:21;4.23;;;4.23;;
2892;SDS011;1456;51.840;12.184;2023-08-06T07:46:48;3.90;;;3.90;;
2892;SDS011;1456;51.840;12.184;2023-08-06T07:49:13;4.37;;;4.37;;
2892;SDS011;1456;51.840;12.184;2023-08-06T07:51:39;4.83;;;4.73;;
2892;SDS011;1456;51.840;12.184;2023-08-06T07:56:35;5.23;;;5.13;;
2892;SDS011;1456;51.840;12.184;2023-08-06T07:59:02;5.10;;;5.00;;
2892;SDS011;1456;51.840;12.184;2023-08-06T08:01:27;4.60;;;4.60;;
2892;SDS011;1456;51.840;12.184;2023-08-06T08:03:54;4.30;;;4.30;;
2892;SDS011;1456;51.840;12.184;2023-08-06T08:06:19;4.77;;;4.77;;
2892;SDS011;1456;51.840;12.184;2023-08-06T08:08:46;5.00;;;5.00;;
2892;SDS011;1456;51.840;12.184;2023-08-06T08:11:14;4.40;;;4.40;;
2892;SDS011;1456;51.840;12.184;2023-08-06T08:13:41;4.50;;;4.50;;
2892;SDS011;1456;51.840;12.184;2023-08-06T08:16:07;5.70;;;5.60;;
2892;SDS011;1456;51.840;12.184;2023-08-06T08:18:33;5.10;;;5.10;;
2892;SDS011;1456;51.840;12.184;2023-08-06T08:20:58;4.80;;;4.80;;
2892;SDS011;1456;51.840;12.184;2023-08-06T08:23:24;5.20;;;5.10;;
2892;SDS011;1456;51.840;12.184;2023-08-06T08:26:00;5.20;;;5.20;;
2892;SDS011;1456;51.840;12.184;2023-08-06T08:28:29;5.23;;;5.23;;
2892;SDS011;1456;51.840;12.184;2023-08-06T08:30:56;5.20;;;5.10;;
2892;SDS011;1456;51.840;12.184;2023-08-06T08:33:23;5.50;;;5.40;;
2892;SDS011;1456;51.840;12.184;2023-08-06T08:35:50;5.50;;;5.50;;
2892;SDS011;1456;51.840;12.184;2023-08-06T08:40:48;6.30;;;6.20;;
2892;SDS011;1456;51.840;12.184;2023-08-06T08:43:22;6.00;;;5.90;;
2892;SDS011;1456;51.840;12.184;2023-08-06T08:45:52;5.90;;;5.90;;
2892;SDS011;1456;51.840;12.184;2023-08-06T08:48:27;6.70;;;6.60;;
2892;SDS011;1456;51.840;12.184;2023-08-06T08:50:53;6.63;;;6.53;;
2892;SDS011;1456;51.840;12.184;2023-08-06T08:53:20;6.30;;;6.30;;
2892;SDS011;1456;51.840;12.184;2023-08-06T08:55:47;6.63;;;6.53;;
2892;SDS011;1456;51.840;12.184;2023-08-06T08:58:14;7.47;;;7.37;;
2892;SDS011;1456;51.840;12.184;2023-08-06T09:00:41;6.80;;;6.70;;
2892;SDS011;1456;51.840;12.184;2023-08-06T09:03:08;6.37;;;6.27;;
2892;SDS011;1456;51.840;12.184;2023-08-06T09:05:35;5.50;;;5.50;;
2892;SDS011;1456;51.840;12.184;2023-08-06T09:08:05;6.20;;;6.10;;
2892;SDS011;1456;51.840;12.184;2023-08-06T09:10:34;6.23;;;6.00;;
2892;SDS011;1456;51.840;12.184;2023-08-06T09:13:03;8.73;;;8.53;;
2892;SDS011;1456;51.840;12.184;2023-08-06T09:15:30;6.80;;;6.70;;
2892;SDS011;1456;51.840;12.184;2023-08-06T09:17:57;6.70;;;6.60;;
2892;SDS011;1456;51.840;12.184;2023-08-06T09:20:23;7.60;;;7.40;;
2892;SDS011;1456;51.840;12.184;2023-08-06T09:22:48;8.00;;;7.80;;
2892;SDS011;1456;51.840;12.184;2023-08-06T09:25:21;8.07;;;7.97;;
2892;SDS011;1456;51.840;12.184;2023-08-06T09:27:49;7.73;;;7.63;;
2892;SDS011;1456;51.840;12.184;2023-08-06T09:30:32;8.03;;;7.93;;
2892;SDS011;1456;51.840;12.184;2023-08-06T09:33:00;7.60;;;7.50;;
2892;SDS011;1456;51.840;12.184;2023-08-06T09:35:30;7.30;;;7.20;;
2892;SDS011;1456;51.840;12.184;2023-08-06T09:38:17;7.20;;;7.10;;
2892;SDS011;1456;51.840;12.184;2023-08-06T09:40:42;7.93;;;7.83;;
2892;SDS011;1456;51.840;12.184;2023-08-06T09:43:09;7.30;;;7.20;;
2892;SDS011;1456;51.840;12.184;2023-08-06T09:45:39;7.30;;;7.20;;
2892;SDS011;1456;51.840;12.184;2023-08-06T09:48:09;7.43;;;7.33;;
2892;SDS011;1456;51.840;12.184;2023-08-06T09:50:36;8.90;;;8.70;;
2892;SDS011;1456;51.840;12.184;2023-08-06T09:53:06;8.73;;;8.03;;
2892;SDS011;1456;51.840;12.184;2023-08-06T09:55:34;7.97;;;7.87;;
2892;SDS011;1456;51.840;12.184;2023-08-06T09:58:00;7.70;;;7.60;;
2892;SDS011;1456;51.840;12.184;2023-08-06T10:00:26;8.00;;;7.90;;
2892;SDS011;1456;51.840;12.184;2023-08-06T10:02:55;7.73;;;7.63;;
2892;SDS011;1456;51.840;12.184;2023-08-06T10:05:25;8.50;;;8.40;;
2892;SDS011;1456;51.840;12.184;2023-08-06T10:07:51;7.70;;;7.60;;
2892;SDS011;1456;51.840;12.184;2023-08-06T10:10:19;8.00;;;7.90;;
2892;SDS011;1456;51.840;12.184;2023-08-06T10:12:50;8.40;;;8.30;;
2892;SDS011;1456;51.840;12.184;2023-08-06T10:15:19;7.70;;;7.60;;
2892;SDS011;1456;51.840;12.184;2023-08-06T10:17:53;8.90;;;8.73;;
2892;SDS011;1456;51.840;12.184;2023-08-06T10:20:22;8.50;;;8.40;;
2892;SDS011;1456;51.840;12.184;2023-08-06T10:23:04;8.57;;;8.47;;
2892;SDS011;1456;51.840;12.184;2023-08-06T10:25:40;8.80;;;8.60;;
2892;SDS011;1456;51.840;12.184;2023-08-06T10:28:10;8.47;;;8.37;;
2892;SDS011;1456;51.840;12.184;2023-08-06T10:30:46;9.10;;;9.00;;
2892;SDS011;1456;51.840;12.184;2023-08-06T10:33:14;9.20;;;9.00;;
2892;SDS011;1456;51.840;12.184;2023-08-06T10:38:18;9.17;;;9.07;;
2892;SDS011;1456;51.840;12.184;2023-08-06T10:43:36;9.00;;;8.90;;
2892;SDS011;1456;51.840;12.184;2023-08-06T10:46:10;9.97;;;9.77;;
2892;SDS011;1456;51.840;12.184;2023-08-06T10:48:43;8.80;;;8.70;;
2892;SDS011;1456;51.840;12.184;2023-08-06T10:53:49;9.10;;;9.00;;
2892;SDS011;1456;51.840;12.184;2023-08-06T10:56:16;9.30;;;9.20;;
2892;SDS011;1456;51.840;12.184;2023-08-06T10:58:47;9.03;;;8.80;;
2892;SDS011;1456;51.840;12.184;2023-08-06T11:01:21;10.10;;;10.00;;
2892;SDS011;1456;51.840;12.184;2023-08-06T11:03:50;9.30;;;9.20;;
2892;SDS011;1456;51.840;12.184;2023-08-06T11:06:18;9.90;;;9.80;;
2892;SDS011;1456;51.840;12.184;2023-08-06T11:08:49;9.43;;;9.33;;
2892;SDS011;1456;51.840;12.184;2023-08-06T11:11:16;9.77;;;9.67;;
2892;SDS011;1456;51.840;12.184;2023-08-06T11:13:47;9.97;;;9.87;;
2892;SDS011;1456;51.840;12.184;2023-08-06T11:16:15;9.60;;;9.50;;
2892;SDS011;1456;51.840;12.184;2023-08-06T11:18:49;10.20;;;10.00;;
2892;SDS011;1456;51.840;12.184;2023-08-06T11:21:20;9.40;;;9.20;;
2892;SDS011;1456;51.840;12.184;2023-08-06T11:23:46;10.33;;;10.13;;
2892;SDS011;1456;51.840;12.184;2023-08-06T11:26:12;10.10;;;10.00;;
2892;SDS011;1456;51.840;12.184;2023-08-06T11:28:39;10.20;;;10.10;;
2892;SDS011;1456;51.840;12.184;2023-08-06T11:31:10;10.93;;;10.73;;
2892;SDS011;1456;51.840;12.184;2023-08-06T11:33:53;11.33;;;11.13;;
2892;SDS011;1456;51.840;12.184;2023-08-06T11:36:28;10.77;;;10.47;;
2892;SDS011;1456;51.840;12.184;2023-08-06T11:38:59;10.00;;;9.90;;
2892;SDS011;1456;51.840;12.184;2023-08-06T11:41:29;10.20;;;10.00;;
2892;SDS011;1456;51.840;12.184;2023-08-06T11:43:55;10.83;;;10.53;;
2892;SDS011;1456;51.840;12.184;2023-08-06T11:46:27;10.93;;;10.67;;
2892;SDS011;1456;51.840;12.184;2023-08-06T11:48:53;10.30;;;10.10;;
2892;SDS011;1456;51.840;12.184;2023-08-06T11:51:26;10.97;;;10.67;;
2892;SDS011;1456;51.840;12.184;2023-08-06T11:53:58;11.80;;;11.40;;
2892;SDS011;1456;51.840;12.184;2023-08-06T11:56:26;10.70;;;10.50;;
2892;SDS011;1456;51.840;12.184;2023-08-06T11:58:54;10.47;;;10.30;;
2892;SDS011;1456;51.840;12.184;2023-08-06T12:01:21;20.80;;;10.40;;
2892;SDS011;1456;51.840;12.184;2023-08-06T12:06:26;9.97;;;9.80;;
2892;SDS011;1456;51.840;12.184;2023-08-06T12:08:53;9.90;;;9.73;;
2892;SDS011;1456;51.840;12.184;2023-08-06T12:11:24;10.27;;;10.07;;
2892;SDS011;1456;51.840;12.184;2023-08-06T12:16:41;10.47;;;10.30;;
2892;SDS011;1456;51.840;12.184;2023-08-06T12:19:08;11.07;;;10.87;;
2892;SDS011;1456;51.840;12.184;2023-08-06T12:21:48;10.67;;;10.47;;
2892;SDS011;1456;51.840;12.184;2023-08-06T12:24:15;11.63;;;11.33;;
2892;SDS011;1456;51.840;12.184;2023-08-06T12:26:41;10.80;;;10.57;;
2892;SDS011;1456;51.840;12.184;2023-08-06T12:29:07;10.23;;;9.93;;
2892;SDS011;1456;51.840;12.184;2023-08-06T12:31:34;10.63;;;10.43;;
2892;SDS011;1456;51.840;12.184;2023-08-06T12:34:00;10.30;;;10.10;;
2892;SDS011;1456;51.840;12.184;2023-08-06T12:36:26;11.17;;;10.90;;
2892;SDS011;1456;51.840;12.184;2023-08-06T12:41:21;11.20;;;11.00;;
2892;SDS011;1456;51.840;12.184;2023-08-06T12:43:53;10.93;;;10.73;;
2892;SDS011;1456;51.840;12.184;2023-08-06T12:46:18;11.20;;;11.00;;
2892;SDS011;1456;51.840;12.184;2023-08-06T12:51:14;10.57;;;10.27;;
2892;SDS011;1456;51.840;12.184;2023-08-06T12:53:41;10.97;;;10.77;;
2892;SDS011;1456;51.840;12.184;2023-08-06T12:56:09;11.83;;;11.33;;
2892;SDS011;1456;51.840;12.184;2023-08-06T12:58:37;11.17;;;10.87;;
2892;SDS011;1456;51.840;12.184;2023-08-06T13:01:12;10.33;;;10.13;;
2892;SDS011;1456;51.840;12.184;2023-08-06T13:03:38;10.33;;;10.13;;
2892;SDS011;1456;51.840;12.184;2023-08-06T13:06:06;10.43;;;10.13;;
2892;SDS011;1456;51.840;12.184;2023-08-06T13:08:36;11.70;;;11.40;;
2892;SDS011;1456;51.840;12.184;2023-08-06T13:11:13;11.27;;;10.97;;
2892;SDS011;1456;51.840;12.184;2023-08-06T13:13:39;11.50;;;11.30;;
2892;SDS011;1456;51.840;12.184;2023-08-06T13:18:36;10.80;;;10.50;;
2892;SDS011;1456;51.840;12.184;2023-08-06T13:21:05;11.20;;;10.20;;
2892;SDS011;1456;51.840;12.184;2023-08-06T13:23:31;10.37;;;10.17;;
2892;SDS011;1456;51.840;12.184;2023-08-06T13:26:02;11.73;;;11.43;;
2892;SDS011;1456;51.840;12.184;2023-08-06T13:28:30;11.17;;;10.97;;
2892;SDS011;1456;51.840;12.184;2023-08-06T13:31:07;11.30;;;11.00;;
2892;SDS011;1456;51.840;12.184;2023-08-06T13:33:42;11.83;;;11.53;;
2892;SDS011;1456;51.840;12.184;2023-08-06T13:36:08;12.23;;;11.93;;
2892;SDS011;1456;51.840;12.184;2023-08-06T13:38:33;10.73;;;10.43;;
2892;SDS011;1456;51.840;12.184;2023-08-06T13:41:05;10.53;;;10.33;;
2892;SDS011;1456;51.840;12.184;2023-08-06T13:43:31;11.00;;;10.73;;
2892;SDS011;1456;51.840;12.184;2023-08-06T13:45:56;11.20;;;11.00;;
2892;SDS011;1456;51.840;12.184;2023-08-06T13:48:28;10.97;;;10.77;;
2892;SDS011;1456;51.840;12.184;2023-08-06T13:50:54;10.57;;;10.37;;
2892;SDS011;1456;51.840;12.184;2023-08-06T13:55:56;11.23;;;11.00;;
2892;SDS011;1456;51.840;12.184;2023-08-06T13:58:25;11.60;;;11.10;;
2892;SDS011;1456;51.840;12.184;2023-08-06T14:03:22;10.43;;;10.23;;
2892;SDS011;1456;51.840;12.184;2023-08-06T14:05:50;11.77;;;11.07;;
2892;SDS011;1456;51.840;12.184;2023-08-06T14:08:25;11.10;;;10.90;;
2892;SDS011;1456;51.840;12.184;2023-08-06T14:10:51;10.63;;;10.37;;
2892;SDS011;1456;51.840;12.184;2023-08-06T14:13:23;9.57;;;9.43;;
2892;SDS011;1456;51.840;12.184;2023-08-06T14:15:49;9.50;;;9.40;;
2892;SDS011;1456;51.840;12.184;2023-08-06T14:18:15;9.10;;;9.00;;
2892;SDS011;1456;51.840;12.184;2023-08-06T14:20:41;9.40;;;9.30;;
2892;SDS011;1456;51.840;12.184;2023-08-06T14:23:09;9.93;;;9.73;;
2892;SDS011;1456;51.840;12.184;2023-08-06T14:25:38;9.27;;;9.13;;
2892;SDS011;1456;51.840;12.184;2023-08-06T14:28:05;10.60;;;10.40;;
2892;SDS011;1456;51.840;12.184;2023-08-06T14:30:31;9.60;;;9.37;;
2892;SDS011;1456;51.840;12.184;2023-08-06T14:32:58;10.20;;;10.00;;
2892;SDS011;1456;51.840;12.184;2023-08-06T14:35:27;9.50;;;9.40;;
2892;SDS011;1456;51.840;12.184;2023-08-06T14:37:53;9.70;;;9.20;;
2892;SDS011;1456;51.840;12.184;2023-08-06T14:40:19;9.60;;;9.40;;
2892;SDS011;1456;51.840;12.184;2023-08-06T14:42:46;9.80;;;9.60;;
2892;SDS011;1456;51.840;12.184;2023-08-06T14:45:12;9.70;;;9.43;;
2892;SDS011;1456;51.840;12.184;2023-08-06T14:47:45;9.20;;;9.10;;
2892;SDS011;1456;51.840;12.184;2023-08-06T14:50:12;8.77;;;8.57;;
2892;SDS011;1456;51.840;12.184;2023-08-06T14:52:39;9.43;;;9.23;;
2892;SDS011;1456;51.840;12.184;2023-08-06T14:55:04;9.80;;;9.60;;
2892;SDS011;1456;51.840;12.184;2023-08-06T14:57:30;10.40;;;10.10;;
2892;SDS011;1456;51.840;12.184;2023-08-06T14:59:57;10.33;;;10.13;;
2892;SDS011;1456;51.840;12.184;2023-08-06T15:02:23;10.67;;;10.37;;
2892;SDS011;1456;51.840;12.184;2023-08-06T15:04:49;9.67;;;9.47;;
2892;SDS011;1456;51.840;12.184;2023-08-06T15:07:15;9.70;;;9.50;;
2892;SDS011;1456;51.840;12.184;2023-08-06T15:09:42;9.73;;;9.53;;
2892;SDS011;1456;51.840;12.184;2023-08-06T15:12:08;9.20;;;9.10;;
2892;SDS011;1456;51.840;12.184;2023-08-06T15:14:34;10.07;;;9.77;;
2892;SDS011;1456;51.840;12.184;2023-08-06T15:17:01;9.57;;;9.20;;
2892;SDS011;1456;51.840;12.184;2023-08-06T15:19:32;9.77;;;9.53;;
2892;SDS011;1456;51.840;12.184;2023-08-06T15:24:28;9.50;;;9.20;;
2892;SDS011;1456;51.840;12.184;2023-08-06T15:26:54;9.63;;;9.30;;
2892;SDS011;1456;51.840;12.184;2023-08-06T15:29:26;9.07;;;8.87;;
2892;SDS011;1456;51.840;12.184;2023-08-06T15:31:58;11.17;;;10.03;;
2892;SDS011;1456;51.840;12.184;2023-08-06T15:36:54;10.57;;;9.87;;
2892;SDS011;1456;51.840;12.184;2023-08-06T15:39:27;9.27;;;9.17;;
2892;SDS011;1456;51.840;12.184;2023-08-06T15:41:53;9.30;;;9.10;;
2892;SDS011;1456;51.840;12.184;2023-08-06T15:46:47;9.70;;;9.50;;
2892;SDS011;1456;51.840;12.184;2023-08-06T15:49:14;9.10;;;9.00;;
2892;SDS011;1456;51.840;12.184;2023-08-06T15:51:42;10.20;;;9.90;;
2892;SDS011;1456;51.840;12.184;2023-08-06T15:54:09;8.93;;;8.80;;
2892;SDS011;1456;51.840;12.184;2023-08-06T15:56:35;9.30;;;9.20;;
2892;SDS011;1456;51.840;12.184;2023-08-06T16:01:58;10.00;;;9.70;;
2892;SDS011;1456;51.840;12.184;2023-08-06T16:04:33;10.67;;;10.27;;
2892;SDS011;1456;51.840;12.184;2023-08-06T16:06:58;10.27;;;10.00;;
2892;SDS011;1456;51.840;12.184;2023-08-06T16:09:24;10.47;;;10.27;;
2892;SDS011;1456;51.840;12.184;2023-08-06T16:14:21;10.90;;;10.70;;
2892;SDS011;1456;51.840;12.184;2023-08-06T16:16:48;10.27;;;9.97;;
2892;SDS011;1456;51.840;12.184;2023-08-06T16:19:14;10.63;;;10.43;;
2892;SDS011;1456;51.840;12.184;2023-08-06T16:21:40;11.93;;;11.30;;
2892;SDS011;1456;51.840;12.184;2023-08-06T16:24:06;9.77;;;9.67;;
2892;SDS011;1456;51.840;12.184;2023-08-06T16:26:36;10.30;;;10.10;;
2892;SDS011;1456;51.840;12.184;2023-08-06T16:29:01;9.90;;;9.70;;